Time;durP1;ratioP1;P1;durP2;ratioP2;P2;SDS_P1;SDS_P2;PMS_P1;PMS_P2;Temp;Humidity;BMP_temperature;BMP_pressure;BME280_temperature;BME280_humidity;BME280_pressure;Samples;Min_cycle;Max_cycle;Signal;HPM_P1;HPM_P2
2022/01/06 00:00:40;;;;;;;15.30;2.72;;;3.10;99.90;;;;;;5073050;28;20028;-75
2022/01/06 00:03:05;;;;;;;22.17;3.40;;;3.00;99.90;;;;;;5073324;28;20541;-75
2022/01/06 00:05:31;;;;;;;13.43;2.40;;;3.00;99.90;;;;;;5073194;28;20418;-74
2022/01/06 00:07:57;;;;;;;13.15;2.55;;;3.20;99.90;;;;;;5072699;28;20017;-75
2022/01/06 00:10:23;;;;;;;13.82;2.10;;;3.20;99.90;;;;;;5072761;28;20392;-75
2022/01/06 00:23:35;;;;;;;16.67;3.03;;;3.10;99.90;;;;;;5073093;28;20052;-74
2022/01/06 00:26:02;;;;;;;13.75;2.28;;;3.10;99.90;;;;;;5072996;28;20483;-75
2022/01/06 00:28:28;;;;;;;13.35;2.03;;;3.10;99.90;;;;;;5072567;28;20029;-75
2022/01/06 00:30:54;;;;;;;12.02;2.65;;;3.00;99.90;;;;;;5073067;28;20028;-74
2022/01/06 00:33:20;;;;;;;20.88;2.03;;;3.10;99.90;;;;;;5072318;28;20031;-74
2022/01/06 00:35:46;;;;;;;14.30;2.58;;;3.10;99.90;;;;;;5072268;28;20485;-74
2022/01/06 00:38:11;;;;;;;18.55;2.45;;;3.10;99.90;;;;;;5072534;28;20101;-74
2022/01/06 00:40:38;;;;;;;21.23;2.45;;;3.10;99.90;;;;;;5072845;28;20025;-75
2022/01/06 00:43:05;;;;;;;17.65;2.35;;;3.10;99.90;;;;;;5072302;28;20115;-74
2022/01/06 00:45:32;;;;;;;16.20;2.88;;;3.00;99.90;;;;;;5072510;28;20071;-74
2022/01/06 00:47:58;;;;;;;13.70;2.40;;;3.10;99.90;;;;;;5072709;28;20131;-74
2022/01/06 00:50:24;;;;;;;18.85;2.17;;;3.10;99.90;;;;;;5071801;28;20052;-74
2022/01/06 00:52:50;;;;;;;10.50;2.47;;;3.00;99.90;;;;;;5072386;28;20484;-74
2022/01/06 00:55:16;;;;;;;13.93;2.22;;;3.00;99.90;;;;;;5071628;28;20039;-74
2022/01/06 00:57:42;;;;;;;14.85;1.70;;;2.90;99.90;;;;;;5072508;28;20024;-74
2022/01/06 01:00:09;;;;;;;9.88;1.73;;;2.80;99.90;;;;;;5072059;28;20029;-75
2022/01/06 01:02:34;;;;;;;19.05;4.43;;;2.80;99.90;;;;;;5071823;28;20053;-75
2022/01/06 01:05:00;;;;;;;21.27;2.80;;;2.90;99.90;;;;;;5072275;28;20069;-75
2022/01/06 01:07:26;;;;;;;12.55;1.80;;;2.80;99.90;;;;;;5072000;28;20028;-76
2022/01/06 01:09:52;;;;;;;16.77;2.30;;;2.90;99.90;;;;;;5072005;28;20012;-76
2022/01/06 01:12:17;;;;;;;16.33;2.55;;;2.90;99.90;;;;;;5072389;28;20023;-75
2022/01/06 01:14:56;;;;;;;15.43;2.15;;;2.90;99.90;;;;;;5072354;28;20107;-76
2022/01/06 01:17:25;;;;;;;22.33;3.70;;;2.80;99.90;;;;;;5071477;28;20103;-75
2022/01/06 01:19:51;;;;;;;16.70;2.63;;;2.80;99.90;;;;;;5072392;28;20029;-75
2022/01/06 01:22:17;;;;;;;9.43;2.20;;;3.00;99.90;;;;;;5071981;28;20075;-75
2022/01/06 01:24:43;;;;;;;13.45;1.85;;;2.90;99.90;;;;;;5071500;28;20087;-75
2022/01/06 01:27:08;;;;;;;18.90;2.38;;;2.80;99.90;;;;;;5071712;28;20033;-75
2022/01/06 01:29:41;;;;;;;12.82;1.70;;;2.70;99.90;;;;;;5074923;28;20017;-76
2022/01/06 01:32:07;;;;;;;10.82;1.85;;;2.50;99.90;;;;;;5075264;28;20036;-75
2022/01/06 01:34:32;;;;;;;19.45;1.95;;;2.50;99.90;;;;;;5076042;28;20021;-76
2022/01/06 01:36:58;;;;;;;16.42;1.90;;;2.40;99.90;;;;;;5076112;28;20056;-76
2022/01/06 01:39:28;;;;;;;8.20;2.38;;;2.40;99.90;;;;;;5075165;28;20056;-76
2022/01/06 01:41:54;;;;;;;15.25;1.83;;;2.30;99.90;;;;;;5076258;28;20032;-76
2022/01/06 01:44:21;;;;;;;14.48;1.75;;;2.40;99.90;;;;;;5075591;28;20070;-76
2022/01/06 01:46:59;;;;;;;6.38;1.45;;;2.40;99.90;;;;;;5075231;28;20036;-76
2022/01/06 01:51:51;;;;;;;13.65;3.83;;;2.50;99.90;;;;;;5075172;28;20060;-76
2022/01/06 01:54:17;;;;;;;11.35;1.75;;;2.50;99.90;;;;;;5075282;28;20099;-76
2022/01/06 01:56:44;;;;;;;16.50;2.22;;;2.60;99.90;;;;;;5075888;28;20035;-76
2022/01/06 01:59:11;;;;;;;16.00;1.63;;;2.70;99.90;;;;;;5075047;28;20029;-76
2022/01/06 02:01:36;;;;;;;13.70;1.48;;;2.70;99.90;;;;;;5075875;28;20033;-76
2022/01/06 02:04:02;;;;;;;16.83;2.13;;;2.60;99.90;;;;;;5075210;28;20098;-76
2022/01/06 02:06:28;;;;;;;9.00;2.03;;;2.50;99.90;;;;;;5074586;28;20082;-76
2022/01/06 02:08:54;;;;;;;14.55;1.70;;;2.50;99.90;;;;;;5076201;28;20024;-76
2022/01/06 02:11:21;;;;;;;7.47;1.85;;;2.40;99.90;;;;;;5075507;28;20047;-76
2022/01/06 02:13:55;;;;;;;9.95;1.52;;;2.40;99.90;;;;;;5074902;28;20073;-75
2022/01/06 02:16:22;;;;;;;16.25;2.30;;;2.50;99.90;;;;;;5075090;28;20058;-76
2022/01/06 02:18:49;;;;;;;13.52;2.53;;;2.50;99.90;;;;;;5075519;28;20088;-76
2022/01/06 02:21:15;;;;;;;18.85;1.98;;;2.50;99.90;;;;;;5074013;28;20170;-76
2022/01/06 02:23:41;;;;;;;12.00;1.90;;;2.70;99.90;;;;;;5074960;28;20032;-76
2022/01/06 02:26:07;;;;;;;13.80;1.63;;;2.70;99.90;;;;;;5074843;28;20028;-76
2022/01/06 02:28:32;;;;;;;16.33;2.00;;;2.70;99.90;;;;;;5074509;28;20038;-76
2022/01/06 02:30:58;;;;;;;12.43;1.27;;;2.70;99.90;;;;;;5075184;28;20100;-75
2022/01/06 02:33:27;;;;;;;12.77;1.80;;;2.70;99.90;;;;;;5074690;28;20042;-76
2022/01/06 02:35:54;;;;;;;10.85;1.48;;;2.70;99.90;;;;;;5074053;28;20024;-76
2022/01/06 02:38:21;;;;;;;7.47;1.58;;;2.70;99.90;;;;;;5074573;28;20094;-76
2022/01/06 02:40:47;;;;;;;12.82;1.77;;;2.70;99.90;;;;;;5073606;28;20025;-76
2022/01/06 02:43:16;;;;;;;16.85;2.08;;;2.70;99.90;;;;;;5074748;28;20028;-76
2022/01/06 02:45:42;;;;;;;17.48;2.92;;;2.80;99.90;;;;;;5074598;28;20396;-76
2022/01/06 02:48:10;;;;;;;20.33;1.98;;;3.00;99.90;;;;;;5074205;28;20028;-76
2022/01/06 02:50:41;;;;;;;5.63;1.63;;;3.20;99.90;;;;;;5094904;28;20047;-76
2022/01/06 02:53:08;;;;;;;23.20;1.90;;;3.60;99.90;;;;;;5094547;28;20032;-76
2022/01/06 02:55:36;;;;;;;11.73;1.88;;;3.80;99.90;;;;;;5094339;28;20028;-75
2022/01/06 02:58:02;;;;;;;13.93;1.60;;;3.90;99.90;;;;;;5094904;28;20080;-75
2022/01/06 03:00:28;;;;;;;11.68;1.45;;;4.00;99.90;;;;;;5094895;28;20032;-75
2022/01/06 03:02:53;;;;;;;11.85;1.65;;;4.00;99.90;;;;;;5093797;28;20400;-73
2022/01/06 03:05:19;;;;;;;7.72;1.35;;;4.00;99.90;;;;;;5094071;28;20097;-76
2022/01/06 03:07:46;;;;;;;6.40;1.20;;;4.00;99.90;;;;;;5094703;28;20020;-77
2022/01/06 03:10:15;;;;;;;3.45;1.77;;;3.90;99.90;;;;;;5093567;28;20026;-75
2022/01/06 03:12:41;;;;;;;1.40;0.75;;;3.90;99.90;;;;;;5094502;28;20531;-75
2022/01/06 03:15:10;;;;;;;5.70;1.00;;;3.90;99.90;;;;;;5094528;28;20463;-75
2022/01/06 03:17:38;;;;;;;7.65;0.93;;;3.90;99.90;;;;;;5093621;28;20024;-75
2022/01/06 03:20:05;;;;;;;6.88;1.00;;;3.90;99.90;;;;;;5094296;28;20078;-75
2022/01/06 03:22:31;;;;;;;4.43;1.58;;;3.90;99.90;;;;;;5094444;28;20028;-75
2022/01/06 03:24:56;;;;;;;5.00;0.88;;;3.90;99.90;;;;;;5094135;28;20012;-75
2022/01/06 03:27:22;;;;;;;6.50;0.88;;;3.70;99.90;;;;;;5094583;28;20428;-76
2022/01/06 03:29:49;;;;;;;9.52;0.90;;;3.60;99.90;;;;;;5094454;28;20337;-75
2022/01/06 03:32:16;;;;;;;2.53;0.80;;;3.40;99.90;;;;;;5093651;28;20028;-75
2022/01/06 03:34:41;;;;;;;5.57;0.85;;;3.30;99.90;;;;;;5094522;28;20024;-75
2022/01/06 03:37:07;;;;;;;4.25;0.98;;;3.10;99.90;;;;;;5093439;28;20020;-75
2022/01/06 03:39:33;;;;;;;10.52;1.60;;;2.90;99.90;;;;;;5094101;28;20032;-75
2022/01/06 03:41:59;;;;;;;11.77;1.83;;;2.80;99.90;;;;;;5093986;28;20476;-77
2022/01/06 03:44:24;;;;;;;11.75;1.48;;;2.70;99.90;;;;;;5092960;28;20145;-75
2022/01/06 03:46:50;;;;;;;6.47;0.85;;;2.60;99.90;;;;;;5093658;28;20043;-75
2022/01/06 03:49:16;;;;;;;4.88;1.15;;;2.60;99.90;;;;;;5093683;28;20487;-75
2022/01/06 03:51:42;;;;;;;8.38;1.65;;;2.60;99.90;;;;;;5092176;28;20020;-75
2022/01/06 03:54:07;;;;;;;4.88;0.90;;;2.60;99.90;;;;;;5093270;28;20029;-75
2022/01/06 03:56:33;;;;;;;3.30;1.27;;;2.50;99.90;;;;;;5093439;28;20020;-75
2022/01/06 03:58:58;;;;;;;16.42;3.95;;;2.50;99.90;;;;;;5092915;28;20021;-76
2022/01/06 04:01:24;;;;;;;12.57;1.10;;;2.40;99.90;;;;;;5093266;28;20048;-75
2022/01/06 04:03:50;;;;;;;17.08;1.20;;;2.40;99.90;;;;;;5093382;28;20059;-76
2022/01/06 04:06:16;;;;;;;10.48;1.25;;;2.40;99.90;;;;;;5092511;28;20089;-75
2022/01/06 04:08:42;;;;;;;6.45;0.90;;;2.40;99.90;;;;;;5093357;28;20024;-76
2022/01/06 04:11:07;;;;;;;6.65;1.20;;;2.40;99.90;;;;;;5094534;28;20022;-76
2022/01/06 04:13:34;;;;;;;8.95;1.65;;;2.40;99.90;;;;;;5092732;28;20104;-74
2022/01/06 04:16:02;;;;;;;8.90;1.08;;;2.40;99.90;;;;;;5093312;28;20024;-75
2022/01/06 04:18:28;;;;;;;8.13;1.33;;;2.30;99.90;;;;;;5093177;28;20041;-74
2022/01/06 04:20:54;;;;;;;10.07;1.65;;;2.30;99.90;;;;;;5093512;28;20028;-77
2022/01/06 04:23:19;;;;;;;9.23;2.00;;;2.20;99.90;;;;;;5092864;28;20065;-74
2022/01/06 04:25:45;;;;;;;11.82;1.63;;;2.20;99.90;;;;;;5093150;28;20036;-75
2022/01/06 04:28:10;;;;;;;12.07;1.60;;;2.40;99.90;;;;;;5092322;28;20028;-75
2022/01/06 04:30:36;;;;;;;19.60;3.17;;;2.40;99.90;;;;;;5093036;28;20031;-75
2022/01/06 04:33:01;;;;;;;11.70;1.77;;;2.40;99.90;;;;;;5093198;28;20085;-76
2022/01/06 04:35:27;;;;;;;7.88;1.45;;;2.50;99.90;;;;;;5092078;28;20460;-75
2022/01/06 04:37:52;;;;;;;9.88;1.67;;;2.70;99.90;;;;;;5093115;28;20024;-76
2022/01/06 04:40:18;;;;;;;16.92;3.00;;;2.70;99.90;;;;;;5091979;28;20062;-76
2022/01/06 04:42:43;;;;;;;10.55;2.22;;;2.70;99.90;;;;;;5092850;28;20020;-76
2022/01/06 04:45:09;;;;;;;8.63;1.55;;;2.70;99.90;;;;;;5092470;28;20024;-76
2022/01/06 04:47:35;;;;;;;9.60;1.50;;;2.70;99.90;;;;;;5092253;28;20036;-76
2022/01/06 04:50:00;;;;;;;10.07;1.73;;;2.60;99.90;;;;;;5092672;28;20020;-76
2022/01/06 04:52:26;;;;;;;4.28;0.98;;;2.60;99.90;;;;;;5092357;28;20032;-76
2022/01/06 04:54:51;;;;;;;6.20;0.90;;;2.60;99.90;;;;;;5091773;28;20020;-76
2022/01/06 04:57:17;;;;;;;8.35;1.02;;;2.60;99.90;;;;;;5092326;28;20072;-76
2022/01/06 04:59:43;;;;;;;4.65;0.95;;;2.50;99.90;;;;;;5092617;28;20038;-76
2022/01/06 05:02:08;;;;;;;12.20;1.50;;;2.40;99.90;;;;;;5091681;28;20016;-75
2022/01/06 05:04:34;;;;;;;9.02;1.30;;;2.40;99.90;;;;;;5092564;28;20050;-75
2022/01/06 05:07:06;;;;;;;9.90;1.00;;;2.30;99.90;;;;;;5092670;28;20032;-75
2022/01/06 05:09:32;;;;;;;10.45;2.13;;;2.30;99.90;;;;;;5092015;28;20030;-76
2022/01/06 05:11:57;;;;;;;7.38;1.75;;;2.20;99.90;;;;;;5092635;28;20096;-76
2022/01/06 05:14:23;;;;;;;9.27;1.90;;;2.20;99.90;;;;;;5092111;28;20382;-75
2022/01/06 05:16:48;;;;;;;3.60;1.10;;;2.30;99.90;;;;;;5092003;28;20028;-75
2022/01/06 05:19:14;;;;;;;3.55;0.93;;;2.20;99.90;;;;;;5092507;28;20089;-75
2022/01/06 05:21:40;;;;;;;9.90;1.50;;;2.20;99.90;;;;;;5092597;28;20360;-75
2022/01/06 05:24:14;;;;;;;4.78;1.05;;;2.10;99.90;;;;;;5091585;28;20085;-75
2022/01/06 05:26:40;;;;;;;8.07;0.90;;;2.10;99.90;;;;;;5092207;28;20032;-75
2022/01/06 05:29:08;;;;;;;5.47;0.95;;;2.00;99.90;;;;;;5092605;28;20032;-77
2022/01/06 05:31:33;;;;;;;2.22;0.55;;;2.10;99.90;;;;;;5091940;28;20111;-76
2022/01/06 05:33:59;;;;;;;12.05;1.17;;;2.10;99.90;;;;;;5092585;28;20044;-76
2022/01/06 05:36:25;;;;;;;5.90;0.98;;;2.20;99.90;;;;;;5092053;28;20028;-75
2022/01/06 05:38:50;;;;;;;6.90;1.15;;;2.30;99.90;;;;;;5092024;28;20047;-76
2022/01/06 05:41:16;;;;;;;7.25;0.85;;;2.30;99.90;;;;;;5092019;28;20494;-75
2022/01/06 05:43:41;;;;;;;2.88;1.05;;;2.30;99.90;;;;;;5091474;28;20486;-75
2022/01/06 05:46:07;;;;;;;12.55;1.80;;;2.20;99.90;;;;;;5091978;28;20036;-75
2022/01/06 05:48:32;;;;;;;7.05;0.85;;;2.20;99.90;;;;;;5092558;28;20038;-75
2022/01/06 05:50:58;;;;;;;9.10;0.98;;;2.10;99.90;;;;;;5091522;28;20063;-76
2022/01/06 05:53:24;;;;;;;8.45;1.17;;;2.10;99.90;;;;;;5092216;28;20202;-76
2022/01/06 05:55:49;;;;;;;7.43;1.92;;;2.00;99.90;;;;;;5092854;28;20468;-75
2022/01/06 05:58:15;;;;;;;3.45;1.23;;;2.10;99.90;;;;;;5094598;28;20089;-76
2022/01/06 06:00:42;;;;;;;8.18;1.20;;;2.10;99.90;;;;;;5096430;28;20024;-75
2022/01/06 06:03:07;;;;;;;6.07;0.70;;;2.00;99.90;;;;;;5093927;28;20040;-75
2022/01/06 06:05:33;;;;;;;8.10;0.98;;;2.00;99.90;;;;;;5091228;28;20024;-76
2022/01/06 06:07:58;;;;;;;2.55;0.80;;;2.00;99.90;;;;;;5092014;28;20024;-76
2022/01/06 06:10:24;;;;;;;4.35;0.77;;;1.90;99.90;;;;;;5092137;28;20020;-76
2022/01/06 06:12:53;;;;;;;8.75;1.10;;;1.90;99.90;;;;;;5091409;28;20560;-75
2022/01/06 06:15:21;;;;;;;6.53;1.30;;;1.90;99.90;;;;;;5092560;28;20028;-76
2022/01/06 06:17:47;;;;;;;4.97;0.93;;;1.80;99.90;;;;;;5095715;28;20016;-75
2022/01/06 06:20:22;;;;;;;5.05;1.00;;;1.80;99.90;;;;;;5094641;28;20027;-76
2022/01/06 06:22:47;;;;;;;10.80;1.60;;;1.70;99.90;;;;;;5097538;28;20028;-76
2022/01/06 06:25:13;;;;;;;2.97;0.98;;;1.70;99.90;;;;;;5095184;28;20073;-76
2022/01/06 06:27:38;;;;;;;6.90;1.95;;;1.70;99.90;;;;;;5094932;28;20376;-77
2022/01/06 06:30:05;;;;;;;9.45;1.00;;;1.70;99.90;;;;;;5095106;28;20099;-75
2022/01/06 06:32:33;;;;;;;9.35;1.05;;;1.70;99.90;;;;;;5097072;28;20028;-75
2022/01/06 06:35:02;;;;;;;2.95;0.93;;;1.70;99.90;;;;;;5080085;28;20020;-76
2022/01/06 06:37:28;;;;;;;5.63;1.05;;;1.70;99.90;;;;;;5073915;28;20074;-75
2022/01/06 06:39:54;;;;;;;6.40;1.33;;;1.70;99.90;;;;;;5073292;28;20542;-75
2022/01/06 06:42:19;;;;;;;8.50;1.40;;;1.70;99.90;;;;;;5073953;28;20029;-75
2022/01/06 06:44:45;;;;;;;6.15;1.13;;;1.70;99.90;;;;;;5073739;28;20484;-74
2022/01/06 06:47:11;;;;;;;9.75;1.48;;;1.70;99.90;;;;;;5072652;28;20078;-77
2022/01/06 06:49:37;;;;;;;4.90;0.93;;;1.70;99.90;;;;;;5074052;28;20472;-76
2022/01/06 06:52:03;;;;;;;6.35;0.90;;;1.60;99.90;;;;;;5073619;28;20029;-77
2022/01/06 06:54:29;;;;;;;14.70;3.30;;;1.60;99.90;;;;;;5073022;28;20024;-74
2022/01/06 06:56:55;;;;;;;7.78;1.17;;;1.60;99.90;;;;;;5074338;28;20024;-75
2022/01/06 06:59:20;;;;;;;14.30;1.30;;;1.60;99.90;;;;;;5076395;28;20021;-75
2022/01/06 07:01:46;;;;;;;9.60;1.50;;;1.60;99.90;;;;;;5073486;28;20032;-76
2022/01/06 07:04:11;;;;;;;13.55;1.70;;;1.70;99.90;;;;;;5073217;28;20040;-75
2022/01/06 07:06:40;;;;;;;8.13;1.52;;;1.70;99.90;;;;;;5073834;28;20430;-76
2022/01/06 07:09:06;;;;;;;6.47;1.65;;;1.70;99.90;;;;;;5072880;28;20108;-75
2022/01/06 07:11:32;;;;;;;6.72;1.73;;;1.80;99.90;;;;;;5074030;28;20495;-75
2022/01/06 07:13:58;;;;;;;4.93;1.23;;;1.70;99.90;;;;;;5076763;28;20059;-75
2022/01/06 07:16:23;;;;;;;7.55;1.70;;;1.70;99.90;;;;;;5072801;28;20150;-74
2022/01/06 07:18:49;;;;;;;5.32;1.52;;;1.80;99.90;;;;;;5073532;28;20016;-76
2022/01/06 07:21:15;;;;;;;9.60;2.15;;;1.70;99.90;;;;;;5082888;28;20073;-76
2022/01/06 07:23:41;;;;;;;3.03;1.42;;;1.70;99.90;;;;;;5090722;28;20024;-76
2022/01/06 07:26:07;;;;;;;11.55;2.75;;;1.70;99.90;;;;;;5076578;28;20060;-76
2022/01/06 07:28:32;;;;;;;12.45;2.30;;;1.70;99.90;;;;;;5093726;28;20044;-76
2022/01/06 07:30:59;;;;;;;7.53;1.55;;;1.70;99.90;;;;;;5074347;28;20028;-76
2022/01/06 07:33:24;;;;;;;3.97;1.40;;;1.70;99.90;;;;;;5072999;28;20097;-75
2022/01/06 07:35:50;;;;;;;6.47;1.50;;;1.70;99.90;;;;;;5090504;28;20377;-75
2022/01/06 07:38:17;;;;;;;7.35;1.73;;;1.70;99.90;;;;;;5092851;28;20024;-75
2022/01/06 07:40:43;;;;;;;4.10;1.20;;;1.60;99.90;;;;;;5093477;28;20039;-75
2022/01/06 07:43:09;;;;;;;7.97;1.45;;;1.60;99.90;;;;;;5092471;28;20055;-76
2022/01/06 07:45:34;;;;;;;4.97;1.67;;;1.60;99.90;;;;;;5079363;28;20022;-76
2022/01/06 07:48:03;;;;;;;4.95;1.42;;;1.70;99.90;;;;;;5082880;28;20031;-79
2022/01/06 07:50:34;;;;;;;6.25;2.17;;;1.70;99.90;;;;;;5090836;28;20303;-77
2022/01/06 07:53:00;;;;;;;7.32;1.88;;;1.70;99.90;;;;;;5082777;28;20480;-75
2022/01/06 07:55:26;;;;;;;14.68;2.40;;;1.70;99.90;;;;;;5072698;28;20060;-77
2022/01/06 07:57:54;;;;;;;11.23;2.28;;;1.80;99.90;;;;;;5072262;28;20392;-76
2022/01/06 08:00:20;;;;;;;8.18;1.88;;;1.80;99.90;;;;;;5072502;28;20028;-78
2022/01/06 08:02:46;;;;;;;12.90;2.10;;;1.80;99.90;;;;;;5072380;28;20059;-77
2022/01/06 08:05:15;;;;;;;7.25;2.25;;;1.80;99.90;;;;;;5071537;28;20035;-76
2022/01/06 08:07:41;;;;;;;6.40;2.80;;;1.80;99.90;;;;;;5088828;28;20112;-78
2022/01/06 08:10:08;;;;;;;13.43;3.10;;;1.70;99.90;;;;;;5093305;28;20021;-78
2022/01/06 08:12:34;;;;;;;16.85;3.28;;;1.70;99.90;;;;;;5092064;28;20364;-79
2022/01/06 08:14:59;;;;;;;11.82;2.97;;;1.80;99.90;;;;;;5093291;28;20546;-78
2022/01/06 08:17:25;;;;;;;14.50;2.60;;;1.80;99.90;;;;;;5092138;28;20028;-77
2022/01/06 08:19:52;;;;;;;13.90;5.95;;;1.80;99.90;;;;;;5079879;28;20020;-77
2022/01/06 08:22:18;;;;;;;8.40;3.55;;;1.80;99.90;;;;;;5075614;28;20024;-78
2022/01/06 08:24:44;;;;;;;7.80;3.00;;;1.80;99.90;;;;;;5073630;28;20044;-84
2022/01/06 08:27:09;;;;;;;6.38;3.08;;;1.90;99.90;;;;;;5076827;28;20032;-79
2022/01/06 08:29:39;;;;;;;10.02;2.60;;;1.80;99.90;;;;;;5074204;28;20051;-80
2022/01/06 08:32:06;;;;;;;10.45;2.90;;;1.90;99.90;;;;;;5072792;28;20029;-80
2022/01/06 08:34:33;;;;;;;8.85;2.25;;;2.00;99.90;;;;;;5074738;28;20028;-79
2022/01/06 08:36:58;;;;;;;8.85;2.42;;;2.00;99.90;;;;;;5073238;28;20063;-80
2022/01/06 08:39:24;;;;;;;8.13;2.17;;;2.00;99.90;;;;;;5072163;28;20040;-79
2022/01/06 08:41:53;;;;;;;10.38;2.58;;;2.20;99.90;;;;;;5085045;28;20475;-79
2022/01/06 08:44:20;;;;;;;9.45;3.17;;;2.30;99.90;;;;;;5096545;28;20458;-81
2022/01/06 08:46:47;;;;;;;12.82;2.28;;;2.40;99.90;;;;;;5092508;28;20093;-82
2022/01/06 08:49:13;;;;;;;8.05;2.22;;;2.40;99.90;;;;;;5088096;28;20035;-81
2022/01/06 08:51:39;;;;;;;10.82;2.13;;;2.50;99.90;;;;;;5071489;28;20029;-80
2022/01/06 08:54:06;;;;;;;10.52;3.28;;;2.40;99.90;;;;;;5069794;28;20017;-82
2022/01/06 08:56:35;;;;;;;16.38;2.67;;;2.50;99.90;;;;;;5073014;28;20103;-81
2022/01/06 08:59:02;;;;;;;16.25;2.95;;;2.60;99.90;;;;;;5073693;28;20031;-79
2022/01/06 09:01:28;;;;;;;16.52;2.58;;;2.60;99.90;;;;;;5071870;28;20035;-79
2022/01/06 09:03:54;;;;;;;10.73;4.20;;;2.70;99.90;;;;;;5072490;28;20040;-77
2022/01/06 09:06:22;;;;;;;11.73;3.97;;;2.90;99.90;;;;;;5072239;28;20029;-78
2022/01/06 09:08:48;;;;;;;13.80;4.03;;;3.10;99.90;;;;;;5071824;28;20029;-77
2022/01/06 09:11:14;;;;;;;9.68;3.40;;;3.10;99.90;;;;;;5072177;28;20539;-77
2022/01/06 09:13:39;;;;;;;17.33;3.03;;;3.20;99.90;;;;;;5072486;28;20017;-77
2022/01/06 09:16:09;;;;;;;9.50;2.90;;;3.20;99.90;;;;;;5071363;28;20062;-77
2022/01/06 09:18:38;;;;;;;13.65;3.28;;;3.20;99.90;;;;;;5072610;28;20027;-77
2022/01/06 09:21:06;;;;;;;26.92;2.80;;;3.20;99.90;;;;;;5072198;28;20028;-76
2022/01/06 09:23:32;;;;;;;10.15;2.83;;;3.30;99.90;;;;;;5071757;28;20036;-77
2022/01/06 09:25:58;;;;;;;18.63;3.92;;;3.30;99.90;;;;;;5072297;28;20037;-77
2022/01/06 09:28:23;;;;;;;13.13;3.92;;;3.40;99.90;;;;;;5090550;28;20364;-78
2022/01/06 09:30:51;;;;;;;12.60;2.83;;;3.40;99.90;;;;;;5090818;28;20168;-77
2022/01/06 09:33:20;;;;;;;12.15;3.88;;;3.50;99.90;;;;;;5074466;28;20028;-77
2022/01/06 09:35:47;;;;;;;11.13;3.70;;;3.50;99.90;;;;;;5070919;28;20025;-77
2022/01/06 09:38:13;;;;;;;14.73;3.95;;;3.60;99.90;;;;;;5071285;28;20020;-76
2022/01/06 09:40:41;;;;;;;12.57;3.30;;;3.60;99.90;;;;;;5071577;28;20016;-77
2022/01/06 09:43:07;;;;;;;13.48;3.40;;;3.70;99.90;;;;;;5071680;28;20040;-81
2022/01/06 09:45:34;;;;;;;12.85;3.75;;;3.80;99.90;;;;;;5075455;28;20032;-76
2022/01/06 09:48:00;;;;;;;14.63;4.78;;;3.80;99.90;;;;;;5072506;28;20028;-77
2022/01/06 09:50:26;;;;;;;17.42;3.60;;;3.90;99.90;;;;;;5071850;28;20021;-76
2022/01/06 09:52:52;;;;;;;14.93;4.85;;;4.00;99.90;;;;;;5075887;28;20074;-77
2022/01/06 09:55:17;;;;;;;14.55;3.38;;;4.10;99.90;;;;;;5075286;28;20055;-76
2022/01/06 09:57:54;;;;;;;13.63;3.90;;;4.10;99.90;;;;;;5074889;28;20024;-77
2022/01/06 10:00:20;;;;;;;28.27;4.85;;;4.10;99.90;;;;;;5075540;28;20027;-77
2022/01/06 10:02:53;;;;;;;13.88;3.47;;;4.20;99.90;;;;;;5075750;28;20056;-77
2022/01/06 10:05:18;;;;;;;13.85;3.65;;;4.30;99.90;;;;;;5074437;28;20350;-77
2022/01/06 10:07:44;;;;;;;12.20;2.83;;;4.40;99.90;;;;;;5075326;28;20035;-77
2022/01/06 10:10:13;;;;;;;20.55;3.63;;;4.40;99.90;;;;;;5075126;28;20029;-77
2022/01/06 10:12:40;;;;;;;16.65;4.53;;;4.50;99.90;;;;;;5074714;28;20383;-76
2022/01/06 10:15:26;;;;;;;32.50;9.20;;;4.60;99.90;;;;;;5075115;28;20040;-77
2022/01/06 10:17:53;;;;;;;25.63;5.05;;;4.60;99.90;;;;;;5074659;28;20058;-77
2022/01/06 10:20:22;;;;;;;22.00;7.18;;;4.60;99.90;;;;;;5073445;28;20052;-77
2022/01/06 10:22:48;;;;;;;19.38;4.72;;;4.70;99.90;;;;;;5074536;28;20357;-75
2022/01/06 10:25:15;;;;;;;15.93;4.53;;;4.70;99.90;;;;;;5074292;28;20036;-77
2022/01/06 10:27:41;;;;;;;20.55;6.53;;;4.70;99.90;;;;;;5075307;28;20028;-77
2022/01/06 10:30:09;;;;;;;12.55;3.70;;;4.70;99.90;;;;;;5075085;28;20028;-77
2022/01/06 10:32:37;;;;;;;15.55;5.10;;;4.80;99.90;;;;;;5074235;28;20086;-77
2022/01/06 10:35:04;;;;;;;18.98;5.65;;;4.80;99.90;;;;;;5074790;28;20175;-77
2022/01/06 10:37:38;;;;;;;16.48;2.80;;;4.90;99.90;;;;;;5075029;28;20082;-77
2022/01/06 10:40:10;;;;;;;14.23;3.30;;;4.90;99.90;;;;;;5074374;28;20029;-78
2022/01/06 10:42:39;;;;;;;15.82;2.80;;;5.00;99.90;;;;;;5074941;28;20056;-79
2022/01/06 10:45:11;;;;;;;15.70;2.22;;;5.10;99.90;;;;;;5076524;28;20465;-77
2022/01/06 10:47:46;;;;;;;6.43;2.05;;;5.20;99.90;;;;;;5091352;28;20457;-77
2022/01/06 10:50:27;;;;;;;8.77;2.35;;;5.30;99.90;;;;;;5074552;28;20111;-78
2022/01/06 10:53:01;;;;;;;11.27;2.20;;;5.40;99.90;;;;;;5078078;28;20020;-78
2022/01/06 10:55:31;;;;;;;10.00;2.75;;;5.50;99.90;;;;;;5094062;28;20028;-78
2022/01/06 10:58:03;;;;;;;11.88;5.07;;;5.60;99.90;;;;;;5094929;28;20466;-78
2022/01/06 11:00:37;;;;;;;19.63;5.95;;;5.70;99.90;;;;;;5094450;28;20044;-78
2022/01/06 11:03:17;;;;;;;10.10;2.88;;;5.70;99.90;;;;;;5094271;28;20048;-78
2022/01/06 11:05:50;;;;;;;9.27;2.20;;;5.80;99.90;;;;;;5094942;28;20081;-78
2022/01/06 11:08:19;;;;;;;9.73;2.17;;;5.90;99.90;;;;;;5093989;28;20191;-79
2022/01/06 11:11:01;;;;;;;19.20;3.83;;;5.90;99.90;;;;;;5094756;28;20032;-77
2022/01/06 11:13:33;;;;;;;5.57;1.63;;;6.00;99.90;;;;;;5094387;28;20545;-78
2022/01/06 11:15:59;;;;;;;10.52;1.85;;;6.10;99.90;;;;;;5094028;28;20020;-79
2022/01/06 11:18:26;;;;;;;6.50;2.38;;;6.10;99.90;;;;;;5094315;28;20384;-74
2022/01/06 11:21:00;;;;;;;12.40;1.63;;;6.10;99.90;;;;;;5094458;28;20024;-77
2022/01/06 11:23:26;;;;;;;8.27;2.67;;;6.10;99.90;;;;;;5093659;28;20024;-77
2022/01/06 11:26:16;;;;;;;6.78;1.40;;;6.10;99.90;;;;;;5094988;28;20036;-77
2022/01/06 11:28:53;;;;;;;8.52;1.65;;;6.20;99.90;;;;;;5083699;28;20032;-78
2022/01/06 11:31:21;;;;;;;9.43;1.67;;;6.20;99.90;;;;;;5092156;28;20023;-77
2022/01/06 11:33:49;;;;;;;7.13;1.67;;;6.30;99.90;;;;;;5092362;28;20480;-76
2022/01/06 11:36:33;;;;;;;13.20;1.38;;;6.40;99.90;;;;;;5090775;28;20085;-79
2022/01/06 11:39:05;;;;;;;7.22;1.60;;;6.50;99.90;;;;;;5093103;28;20445;-77
2022/01/06 11:41:34;;;;;;;9.88;1.15;;;6.60;99.90;;;;;;5088379;28;20020;-76
2022/01/06 11:44:02;;;;;;;12.80;1.63;;;6.60;99.90;;;;;;5091337;28;20078;-78
2022/01/06 11:46:39;;;;;;;6.30;1.30;;;6.50;99.90;;;;;;5088817;28;20036;-77
2022/01/06 11:49:05;;;;;;;14.85;2.33;;;6.50;99.90;;;;;;5091924;28;20047;-77
2022/01/06 11:51:33;;;;;;;7.80;1.33;;;6.50;99.90;;;;;;5091551;28;20024;-76
2022/01/06 11:54:10;;;;;;;10.48;2.40;;;6.60;99.90;;;;;;5092339;28;20028;-77
2022/01/06 11:56:47;;;;;;;5.35;0.90;;;6.60;99.90;;;;;;5078675;28;20032;-77
2022/01/06 11:59:14;;;;;;;11.75;1.50;;;6.60;99.90;;;;;;5082941;28;20115;-77
2022/01/06 12:01:50;;;;;;;6.22;0.98;;;6.70;99.90;;;;;;5090052;28;20369;-78
2022/01/06 12:04:20;;;;;;;5.40;1.52;;;6.70;99.90;;;;;;5083586;28;20060;-78
2022/01/06 12:06:48;;;;;;;13.27;1.85;;;6.80;99.90;;;;;;5091761;28;20054;-77
2022/01/06 12:09:19;;;;;;;6.80;1.27;;;6.70;99.90;;;;;;5091522;28;20020;-78
2022/01/06 12:11:45;;;;;;;5.40;1.30;;;6.70;99.90;;;;;;5085128;28;20437;-77
2022/01/06 12:14:12;;;;;;;12.70;2.90;;;6.70;99.90;;;;;;5090265;28;20077;-77
2022/01/06 12:16:39;;;;;;;3.50;1.23;;;6.70;99.90;;;;;;5091567;28;20035;-77
2022/01/06 12:19:19;;;;;;;6.72;1.40;;;6.70;99.90;;;;;;5090634;28;20472;-77
2022/01/06 12:21:47;;;;;;;5.00;1.02;;;6.70;99.90;;;;;;5090071;28;20028;-78
2022/01/06 12:24:13;;;;;;;8.65;1.50;;;6.70;99.90;;;;;;5090125;28;20028;-79
2022/01/06 12:26:40;;;;;;;5.75;1.25;;;6.70;99.90;;;;;;5083664;28;20101;-78
2022/01/06 12:29:17;;;;;;;8.48;1.67;;;6.60;99.90;;;;;;5088943;28;20032;-78
2022/01/06 12:31:43;;;;;;;9.23;2.10;;;6.60;99.90;;;;;;5081760;28;20032;-78
2022/01/06 12:34:11;;;;;;;10.68;1.95;;;6.60;99.90;;;;;;5096287;28;20477;-79
2022/01/06 12:36:43;;;;;;;9.70;1.30;;;6.70;99.90;;;;;;5092700;28;20020;-79
2022/01/06 12:39:10;;;;;;;6.28;1.40;;;6.70;99.90;;;;;;5090517;28;20032;-78
2022/01/06 12:41:36;;;;;;;13.30;1.35;;;6.70;99.90;;;;;;5091103;28;20111;-78
2022/01/06 12:44:02;;;;;;;8.52;1.83;;;6.60;99.90;;;;;;5089670;28;20047;-78
2022/01/06 12:46:38;;;;;;;3.97;1.35;;;7.40;99.90;;;;;;5088828;28;20479;-78
2022/01/06 12:49:08;;;;;;;9.75;1.50;;;6.70;99.90;;;;;;5088986;28;20467;-78
2022/01/06 12:51:45;;;;;;;11.32;2.65;;;6.70;99.90;;;;;;5092839;28;20425;-77
2022/01/06 12:54:13;;;;;;;14.60;2.55;;;6.70;99.90;;;;;;5088733;28;20024;-77
2022/01/06 12:56:49;;;;;;;4.25;1.10;;;6.80;99.90;;;;;;5092975;28;20073;-77
2022/01/06 12:59:24;;;;;;;7.97;1.77;;;6.80;99.90;;;;;;5087639;28;20067;-76
2022/01/06 13:01:56;;;;;;;7.45;1.13;;;6.80;99.90;;;;;;5088885;28;20020;-77
2022/01/06 13:04:26;;;;;;;8.50;1.08;;;6.70;99.90;;;;;;5088342;28;20615;-76
2022/01/06 13:06:58;;;;;;;6.20;1.17;;;6.80;99.90;;;;;;5089675;28;20035;-77